createdAt,value
2022-11-07T00:00:08.673Z,10.45
2022-11-07T00:01:08.567Z,10.52
2022-11-07T00:02:08.627Z,10.40
2022-11-07T00:03:08.609Z,10.40
2022-11-07T00:04:08.518Z,10.51
2022-11-07T00:05:08.503Z,10.41
2022-11-07T00:06:08.507Z,10.52
2022-11-07T00:07:08.510Z,10.55
2022-11-07T00:08:08.452Z,10.55
2022-11-07T00:09:08.436Z,10.51
2022-11-07T00:10:08.422Z,10.51
2022-11-07T00:11:08.431Z,10.44
2022-11-07T00:12:08.391Z,10.55
2022-11-07T00:13:08.395Z,10.59
2022-11-07T00:14:08.440Z,10.52
2022-11-07T00:15:08.345Z,10.42
2022-11-07T00:16:08.325Z,10.48
2022-11-07T00:17:08.308Z,10.55
2022-11-07T00:18:08.289Z,10.52
2022-11-07T00:19:08.309Z,10.45
2022-11-07T00:20:08.253Z,10.45
2022-11-07T00:21:08.238Z,10.53
2022-11-07T00:22:08.244Z,10.47
2022-11-07T00:23:08.208Z,10.36
2022-11-07T00:24:08.190Z,10.55
2022-11-07T00:25:08.184Z,10.48
2022-11-07T00:26:08.154Z,10.48
2022-11-07T00:27:08.231Z,10.45
2022-11-07T00:28:08.132Z,10.51
2022-11-07T00:29:08.108Z,10.52
2022-11-07T00:30:08.118Z,10.56
2022-11-07T00:31:08.103Z,10.45
2022-11-07T00:32:08.139Z,10.53
2022-11-07T00:33:08.048Z,10.53
2022-11-07T00:34:08.028Z,10.45
2022-11-07T00:35:08.011Z,10.51
2022-11-07T00:36:08.044Z,10.55
2022-11-07T00:37:07.978Z,10.53
2022-11-07T00:38:07.966Z,10.66
2022-11-07T00:39:07.952Z,10.48
2022-11-07T00:40:07.926Z,10.61
2022-11-07T00:41:07.916Z,10.67
2022-11-07T00:42:07.904Z,10.63
2022-11-07T00:43:07.905Z,10.61
2022-11-07T00:44:07.863Z,10.64
2022-11-07T00:45:07.848Z,10.64
2022-11-07T00:46:07.832Z,10.61
2022-11-07T00:47:07.818Z,10.61
2022-11-07T00:48:07.800Z,10.66
2022-11-07T00:49:07.827Z,10.63
2022-11-07T00:50:07.792Z,10.61
2022-11-07T00:51:07.750Z,10.64
2022-11-07T00:52:07.745Z,10.61
2022-11-07T00:53:07.724Z,10.74
2022-11-07T00:54:07.777Z,10.73
2022-11-07T00:55:07.711Z,10.64
2022-11-07T00:56:07.668Z,10.63
2022-11-07T00:57:07.653Z,10.66
2022-11-07T00:58:12.648Z,10.56
2022-11-07T00:59:07.619Z,10.53
2022-11-07T01:00:07.647Z,10.60
2022-11-07T01:01:07.598Z,10.61
2022-11-07T01:02:07.697Z,10.56
2022-11-07T01:03:07.558Z,10.61
2022-11-07T01:04:07.563Z,10.61
2022-11-07T01:05:07.570Z,10.66
2022-11-07T01:06:07.509Z,10.63
2022-11-07T01:07:07.491Z,10.61
2022-11-07T01:08:07.482Z,10.60
2022-11-07T01:09:07.454Z,10.61
2022-11-07T01:10:07.443Z,10.67
2022-11-07T01:11:07.434Z,10.60
2022-11-07T01:12:07.475Z,10.68
2022-11-07T01:13:07.386Z,10.61
2022-11-07T01:14:07.382Z,10.63
2022-11-07T01:15:07.356Z,10.61
2022-11-07T01:16:07.348Z,10.55
2022-11-07T01:17:07.368Z,10.56
2022-11-07T01:18:07.308Z,10.66
2022-11-07T01:19:07.316Z,10.68
2022-11-07T01:20:07.273Z,10.63
2022-11-07T01:21:10.892Z,10.64
2022-11-07T01:22:07.269Z,10.63
2022-11-07T01:23:07.236Z,10.67
2022-11-07T01:24:07.226Z,10.63
2022-11-07T01:25:07.194Z,10.63
2022-11-07T01:26:07.183Z,10.64
2022-11-07T01:27:07.208Z,10.70
2022-11-07T01:28:07.145Z,10.64
2022-11-07T01:29:07.131Z,10.61
2022-11-07T01:30:07.121Z,10.63
2022-11-07T01:31:07.097Z,10.70
2022-11-07T01:32:07.107Z,10.67
2022-11-07T01:33:07.061Z,10.61
2022-11-07T01:34:07.053Z,10.64
2022-11-07T01:35:07.035Z,10.63
2022-11-07T01:36:07.019Z,10.71
2022-11-07T01:37:07.005Z,10.64
2022-11-07T01:38:06.985Z,10.66
2022-11-07T01:39:07.003Z,10.61
2022-11-07T01:40:06.961Z,10.64
2022-11-07T01:41:06.959Z,10.70
2022-11-07T01:42:06.923Z,10.66
2022-11-07T01:43:06.930Z,10.67
2022-11-07T01:44:06.886Z,10.68
2022-11-07T01:45:06.869Z,10.63
2022-11-07T01:46:06.909Z,10.70
2022-11-07T01:47:06.835Z,10.61
2022-11-07T01:48:06.819Z,10.56
2022-11-07T01:49:06.804Z,10.66
2022-11-07T01:50:06.789Z,10.61
2022-11-07T01:51:06.769Z,10.61
2022-11-07T01:52:06.771Z,10.56
2022-11-07T01:53:06.741Z,10.59
2022-11-07T01:54:06.727Z,10.60
2022-11-07T01:55:06.707Z,10.45
2022-11-07T01:56:06.704Z,10.55
2022-11-07T01:57:06.691Z,10.64
2022-11-07T01:58:06.660Z,10.60
2022-11-07T01:59:06.662Z,10.70
2022-11-07T02:00:06.646Z,10.67
2022-11-07T02:01:06.633Z,10.70
2022-11-07T02:02:06.737Z,10.67
2022-11-07T02:03:06.656Z,10.66
2022-11-07T02:04:06.561Z,10.73
2022-11-07T02:05:06.545Z,10.68
2022-11-07T02:06:06.525Z,10.74
2022-11-07T02:07:06.514Z,10.68
2022-11-07T02:08:06.498Z,10.71
2022-11-07T02:09:06.514Z,10.70
2022-11-07T02:10:06.465Z,10.73
2022-11-07T02:11:06.462Z,10.74
2022-11-07T02:12:06.450Z,10.73
2022-11-07T02:13:06.471Z,10.84
2022-11-07T02:14:06.404Z,10.86
2022-11-07T02:15:06.398Z,10.89
2022-11-07T02:16:06.368Z,10.89
2022-11-07T02:17:06.396Z,10.96
2022-11-07T02:18:06.330Z,10.89
2022-11-07T02:19:06.315Z,10.89
2022-11-07T02:20:06.303Z,10.85
2022-11-07T02:21:06.281Z,10.89
2022-11-07T02:22:06.271Z,10.96
2022-11-07T02:23:06.247Z,10.96
2022-11-07T02:24:06.291Z,10.99
2022-11-07T02:25:06.218Z,10.97
2022-11-07T02:26:06.211Z,10.97
2022-11-07T02:27:06.201Z,10.89
2022-11-07T02:28:06.173Z,10.97
2022-11-07T02:29:06.180Z,10.86
2022-11-07T02:30:06.165Z,10.84
2022-11-07T02:31:06.130Z,10.88
2022-11-07T02:32:06.107Z,10.91
2022-11-07T02:33:06.089Z,10.89
2022-11-07T02:34:06.074Z,10.97
2022-11-07T02:35:06.102Z,10.91
2022-11-07T02:36:06.074Z,10.97
2022-11-07T02:37:06.027Z,10.97
2022-11-07T02:38:06.013Z,10.88
2022-11-07T02:39:05.990Z,10.97
2022-11-07T02:40:05.986Z,10.94
2022-11-07T02:41:05.983Z,11.00
2022-11-07T02:42:06.028Z,10.96
2022-11-07T02:43:05.932Z,10.92
2022-11-07T02:44:05.931Z,11.02
2022-11-07T02:45:05.895Z,10.97
2022-11-07T02:46:05.905Z,10.92
2022-11-07T02:47:05.878Z,10.91
2022-11-07T02:48:05.877Z,10.94
2022-11-07T02:49:05.828Z,10.96
2022-11-07T02:50:05.818Z,10.94
2022-11-07T02:51:05.808Z,10.88
2022-11-07T02:52:05.835Z,10.86
2022-11-07T02:53:05.767Z,10.84
2022-11-07T02:54:05.754Z,10.85
2022-11-07T02:55:05.734Z,10.91
2022-11-07T02:56:05.723Z,10.85
2022-11-07T02:57:05.704Z,10.85
2022-11-07T02:58:05.719Z,10.85
2022-11-07T02:59:05.666Z,10.70
2022-11-07T03:00:05.661Z,10.73
2022-11-07T03:01:05.655Z,10.73
2022-11-07T03:02:05.814Z,10.67
2022-11-07T03:03:05.618Z,10.66
2022-11-07T03:04:05.590Z,10.64
2022-11-07T03:05:05.572Z,10.61
2022-11-07T03:06:05.558Z,10.56
2022-11-07T03:07:05.589Z,10.68
2022-11-07T03:08:05.531Z,10.71
2022-11-07T03:09:05.514Z,10.73
2022-11-07T03:10:05.489Z,10.71
2022-11-07T03:11:05.486Z,10.67
2022-11-07T03:12:05.460Z,10.70
2022-11-07T03:13:05.442Z,10.71
2022-11-07T03:14:05.432Z,10.81
2022-11-07T03:15:05.467Z,10.82
2022-11-07T03:16:05.409Z,10.68
2022-11-07T03:17:05.405Z,10.70
2022-11-07T03:18:05.361Z,10.70
2022-11-07T03:19:05.363Z,10.67
2022-11-07T03:20:05.333Z,10.74
2022-11-07T03:21:05.329Z,10.67
2022-11-07T03:22:05.330Z,10.67
2022-11-07T03:23:05.277Z,10.61
2022-11-07T03:24:05.263Z,10.56
2022-11-07T03:25:05.288Z,10.55
2022-11-07T03:26:05.245Z,10.51
2022-11-07T03:27:05.223Z,10.52
2022-11-07T03:28:05.203Z,10.55
2022-11-07T03:29:05.181Z,10.53
2022-11-07T03:30:05.171Z,10.53
2022-11-07T03:31:05.150Z,10.51
2022-11-07T03:32:05.151Z,10.52
2022-11-07T03:33:05.121Z,10.59
2022-11-07T03:34:05.117Z,10.52
2022-11-07T03:35:05.103Z,10.48
2022-11-07T03:36:05.130Z,10.52
2022-11-07T03:37:05.053Z,10.64
2022-11-07T03:38:05.041Z,10.67
2022-11-07T03:39:05.023Z,10.63
2022-11-07T03:40:05.007Z,10.61
2022-11-07T03:41:04.988Z,10.63
2022-11-07T03:42:05.006Z,10.63
2022-11-07T03:43:04.966Z,10.51
2022-11-07T03:44:04.956Z,10.53
2022-11-07T03:45:04.926Z,10.52
2022-11-07T03:46:04.938Z,10.52
2022-11-07T03:47:04.920Z,10.48
2022-11-07T03:48:04.896Z,10.52
2022-11-07T03:49:04.882Z,10.48
2022-11-07T03:50:04.846Z,10.60
2022-11-07T03:51:04.841Z,10.52
2022-11-07T03:52:04.847Z,10.51
2022-11-07T03:53:04.795Z,10.52
2022-11-07T03:54:04.781Z,10.56
2022-11-07T03:55:04.765Z,10.61
2022-11-07T03:56:04.746Z,10.61
2022-11-07T03:57:04.769Z,10.64
2022-11-07T03:58:04.715Z,10.61
2022-11-07T03:59:04.696Z,10.56
2022-11-07T04:00:04.684Z,10.56
2022-11-07T04:01:04.677Z,10.56
2022-11-07T04:02:04.779Z,10.63
2022-11-07T04:03:04.753Z,10.60
2022-11-07T04:04:04.635Z,10.60
2022-11-07T04:05:04.623Z,10.64
2022-11-07T04:06:04.594Z,10.59
2022-11-07T04:07:04.567Z,10.61
2022-11-07T04:08:04.553Z,10.74
2022-11-07T04:09:04.592Z,10.70
2022-11-07T04:10:04.529Z,10.68
2022-11-07T04:11:04.504Z,10.74
2022-11-07T04:12:04.491Z,10.73
2022-11-07T04:13:04.482Z,10.64
2022-11-07T04:14:04.454Z,10.73
2022-11-07T04:15:04.496Z,10.70
2022-11-07T04:16:04.421Z,10.74
2022-11-07T04:17:04.408Z,10.74
2022-11-07T04:18:04.392Z,10.73
2022-11-07T04:19:04.372Z,10.74
2022-11-07T04:20:04.376Z,10.70
2022-11-07T04:21:04.344Z,10.71
2022-11-07T04:22:04.328Z,10.71
2022-11-07T04:23:04.325Z,10.73
2022-11-07T04:24:04.294Z,10.78
2022-11-07T04:25:04.324Z,10.67
2022-11-07T04:26:04.260Z,10.73
2022-11-07T04:27:04.243Z,10.70
2022-11-07T04:28:04.230Z,10.73
2022-11-07T04:29:04.212Z,10.68
2022-11-07T04:30:04.205Z,10.67
2022-11-07T04:31:04.191Z,10.68
2022-11-07T04:32:04.191Z,10.67
2022-11-07T04:33:04.146Z,10.73
2022-11-07T04:34:04.130Z,10.78
2022-11-07T04:35:04.154Z,10.74
2022-11-07T04:36:04.109Z,10.79
2022-11-07T04:37:04.079Z,10.73
2022-11-07T04:38:04.069Z,10.71
2022-11-07T04:39:04.053Z,10.70
2022-11-07T04:40:04.034Z,10.68
2022-11-07T04:41:04.019Z,10.68
2022-11-07T04:42:04.002Z,10.66
2022-11-07T04:43:03.989Z,10.73
2022-11-07T04:44:03.993Z,10.70
2022-11-07T04:45:03.953Z,10.70
2022-11-07T04:46:03.944Z,10.73
2022-11-07T04:47:03.927Z,10.81
2022-11-07T04:48:03.905Z,10.78
2022-11-07T04:49:03.891Z,10.76
2022-11-07T04:50:03.902Z,10.71
2022-11-07T04:51:03.856Z,10.70
2022-11-07T04:52:03.857Z,10.71
2022-11-07T04:53:03.820Z,10.74
2022-11-07T04:54:03.840Z,10.76
2022-11-07T04:55:03.818Z,10.68
2022-11-07T04:56:03.779Z,10.67
2022-11-07T04:57:03.758Z,10.71
2022-11-07T04:58:03.745Z,10.70
2022-11-07T04:59:03.726Z,10.74
2022-11-07T05:00:03.721Z,10.73
2022-11-07T05:01:03.694Z,10.74
2022-11-07T05:02:03.787Z,10.68
2022-11-07T05:03:03.689Z,10.67
2022-11-07T05:04:03.670Z,10.68
2022-11-07T05:05:03.628Z,10.70
2022-11-07T05:06:03.621Z,10.70
2022-11-07T05:07:03.624Z,10.71
2022-11-07T05:08:03.596Z,10.73
2022-11-07T05:09:03.565Z,10.67
2022-11-07T05:10:05.383Z,10.68
2022-11-07T05:11:03.530Z,10.71
2022-11-07T05:12:03.543Z,10.76
2022-11-07T05:13:03.500Z,10.71
2022-11-07T05:14:03.482Z,10.79
2022-11-07T05:15:03.466Z,10.71
2022-11-07T05:16:03.452Z,10.68
2022-11-07T05:17:03.485Z,10.74
2022-11-07T05:18:03.421Z,10.73
2022-11-07T05:19:03.404Z,10.74
2022-11-07T05:20:03.389Z,10.89
2022-11-07T05:21:03.380Z,10.84
2022-11-07T05:22:03.353Z,10.85
2022-11-07T05:23:03.341Z,10.89
2022-11-07T05:24:03.337Z,10.81
2022-11-07T05:25:03.304Z,10.82
2022-11-07T05:26:03.298Z,10.82
2022-11-07T05:27:03.287Z,10.86
2022-11-07T05:28:03.263Z,10.84
2022-11-07T05:29:03.239Z,10.85
2022-11-07T05:30:03.231Z,10.82
2022-11-07T05:31:03.209Z,10.73
2022-11-07T05:32:03.190Z,10.73
2022-11-07T05:33:03.238Z,10.84
2022-11-07T05:34:03.164Z,10.79
2022-11-07T05:35:03.148Z,10.71
2022-11-07T05:36:03.128Z,10.74
2022-11-07T05:37:03.110Z,10.78
2022-11-07T05:38:03.096Z,10.73
2022-11-07T05:39:03.107Z,10.78
2022-11-07T05:40:03.083Z,10.71
2022-11-07T05:41:03.061Z,10.67
2022-11-07T05:42:03.031Z,10.71
2022-11-07T05:43:03.023Z,10.68
2022-11-07T05:44:03.049Z,10.71
2022-11-07T05:45:02.984Z,10.66
2022-11-07T05:46:02.964Z,10.67
2022-11-07T05:47:02.957Z,10.70
2022-11-07T05:48:02.931Z,10.63
2022-11-07T05:49:02.921Z,10.68
2022-11-07T05:50:02.904Z,10.66
2022-11-07T05:51:02.889Z,10.68
2022-11-07T05:52:02.877Z,10.68
2022-11-07T05:53:02.914Z,10.70
2022-11-07T05:54:02.836Z,10.79
2022-11-07T05:55:02.820Z,10.74
2022-11-07T05:56:02.812Z,10.78
2022-11-07T05:57:02.792Z,10.82
2022-11-07T05:58:06.834Z,10.89
2022-11-07T05:59:02.762Z,10.84
2022-11-07T06:00:02.746Z,10.89
2022-11-07T06:01:02.735Z,10.84
2022-11-07T06:02:02.825Z,10.89
2022-11-07T06:03:02.799Z,10.84
2022-11-07T06:04:02.674Z,10.84
2022-11-07T06:05:02.659Z,10.84
2022-11-07T06:06:02.641Z,10.85
2022-11-07T06:07:02.630Z,10.92
2022-11-07T06:08:02.636Z,10.94
2022-11-07T06:09:02.597Z,10.94
2022-11-07T06:10:02.587Z,10.96
2022-11-07T06:11:02.565Z,10.96
2022-11-07T06:12:02.565Z,10.88
2022-11-07T06:13:02.584Z,10.94
2022-11-07T06:14:02.516Z,10.89
2022-11-07T06:15:02.507Z,10.97
2022-11-07T06:16:02.516Z,10.82
2022-11-07T06:17:02.468Z,10.86
2022-11-07T06:18:02.447Z,10.86
2022-11-07T06:19:02.439Z,10.86
2022-11-07T06:20:02.444Z,10.81
2022-11-07T06:21:02.421Z,10.88
2022-11-07T06:22:02.381Z,10.84
2022-11-07T06:23:02.367Z,10.97
2022-11-07T06:24:03.189Z,10.92
2022-11-07T06:25:02.478Z,10.84
2022-11-07T06:26:02.322Z,10.88
2022-11-07T06:27:02.306Z,10.88
2022-11-07T06:28:02.301Z,10.86
2022-11-07T06:29:02.276Z,10.97
2022-11-07T06:30:02.255Z,10.91
2022-11-07T06:31:02.244Z,10.94
2022-11-07T06:32:02.223Z,10.92
2022-11-07T06:33:02.206Z,10.92
2022-11-07T06:34:02.258Z,10.97
2022-11-07T06:35:02.179Z,11.02
2022-11-07T06:36:02.159Z,11.04
2022-11-07T06:37:03.504Z,11.02
2022-11-07T06:38:02.126Z,10.94
2022-11-07T06:39:02.118Z,11.02
2022-11-07T06:40:02.127Z,11.04
2022-11-07T06:41:02.131Z,10.99
2022-11-07T06:42:02.063Z,10.97
2022-11-07T06:43:02.051Z,11.02
2022-11-07T06:44:02.029Z,10.94
2022-11-07T06:45:02.147Z,11.02
2022-11-07T06:46:02.023Z,10.92
2022-11-07T06:47:01.999Z,11.00
2022-11-07T06:48:01.962Z,10.99
2022-11-07T06:49:01.950Z,10.99
2022-11-07T06:50:02.015Z,10.92
2022-11-07T06:51:01.923Z,10.97
2022-11-07T06:52:01.951Z,10.92
2022-11-07T06:53:01.891Z,10.99
2022-11-07T06:54:01.872Z,10.99
2022-11-07T06:55:01.859Z,10.99
2022-11-07T06:56:01.835Z,11.00
2022-11-07T06:57:01.824Z,11.02
2022-11-07T06:58:01.838Z,11.03
2022-11-07T06:59:01.796Z,10.97
2022-11-07T07:00:01.788Z,10.91
2022-11-07T07:01:01.843Z,10.96
2022-11-07T07:02:01.780Z,10.94
2022-11-07T07:03:01.869Z,10.91
2022-11-07T07:04:01.711Z,11.00
2022-11-07T07:05:01.714Z,10.97
2022-11-07T07:06:01.680Z,10.97
2022-11-07T07:07:01.663Z,11.02
2022-11-07T07:08:01.698Z,11.00
2022-11-07T07:09:01.631Z,11.02
2022-11-07T07:10:01.616Z,11.06
2022-11-07T07:11:01.602Z,11.02
2022-11-07T07:12:01.578Z,11.00
2022-11-07T07:13:01.572Z,10.97
2022-11-07T07:14:02.471Z,11.03
2022-11-07T07:15:01.537Z,11.02
2022-11-07T07:16:01.516Z,11.06
2022-11-07T07:17:01.509Z,10.97
2022-11-07T07:18:01.485Z,10.99
2022-11-07T07:19:01.485Z,11.06
2022-11-07T07:20:01.587Z,11.04
2022-11-07T07:21:01.438Z,11.06
2022-11-07T07:22:01.434Z,11.04
2022-11-07T07:23:05.556Z,11.07
2022-11-07T07:24:01.393Z,11.09
2022-11-07T07:25:01.377Z,11.07
2022-11-07T07:26:01.360Z,11.06
2022-11-07T07:27:01.348Z,11.10
2022-11-07T07:28:01.326Z,11.14
2022-11-07T07:29:01.312Z,11.17
2022-11-07T07:30:01.300Z,11.15
2022-11-07T07:31:01.287Z,11.14
2022-11-07T07:32:01.299Z,11.19
2022-11-07T07:33:01.252Z,11.18
2022-11-07T07:34:01.236Z,11.21
2022-11-07T07:35:01.221Z,11.21
2022-11-07T07:36:01.282Z,11.19
2022-11-07T07:37:01.208Z,11.22
2022-11-07T07:38:01.185Z,11.17
2022-11-07T07:39:01.154Z,11.21
2022-11-07T07:40:01.135Z,11.19
2022-11-07T07:41:01.124Z,11.25
2022-11-07T07:42:01.126Z,11.24
2022-11-07T07:43:01.100Z,11.28
2022-11-07T07:44:01.084Z,11.22
2022-11-07T07:45:01.057Z,11.28
2022-11-07T07:46:01.041Z,11.25
2022-11-07T07:47:01.027Z,11.22
2022-11-07T07:48:01.009Z,11.22
2022-11-07T07:49:01.009Z,11.28
2022-11-07T07:50:00.975Z,11.29
2022-11-07T07:51:00.972Z,11.33
2022-11-07T07:52:01.021Z,11.27
2022-11-07T07:53:06.176Z,11.27
2022-11-07T07:54:00.913Z,11.22
2022-11-07T07:55:00.903Z,11.29
2022-11-07T07:56:00.941Z,11.29
2022-11-07T07:57:00.866Z,11.25
2022-11-07T07:58:00.904Z,11.27
2022-11-07T07:59:00.846Z,11.25
2022-11-07T08:00:00.817Z,11.33
2022-11-07T08:01:00.918Z,11.29
2022-11-07T08:02:00.926Z,11.39
2022-11-07T08:03:00.788Z,11.39
2022-11-07T08:04:02.540Z,11.25
2022-11-07T08:05:00.742Z,11.27
2022-11-07T08:06:00.728Z,11.33
2022-11-07T08:07:00.745Z,11.32
2022-11-07T08:08:00.780Z,11.25
2022-11-07T08:09:00.678Z,11.22
2022-11-07T08:10:09.934Z,11.33
2022-11-07T08:11:00.649Z,11.36
2022-11-07T08:12:00.669Z,11.32
2022-11-07T08:13:00.621Z,11.33
2022-11-07T08:14:01.764Z,11.29
2022-11-07T08:15:00.583Z,11.25
2022-11-07T08:16:00.604Z,11.22
2022-11-07T08:17:00.578Z,11.27
2022-11-07T08:18:00.538Z,11.35
2022-11-07T08:19:00.525Z,11.32
2022-11-07T08:20:00.533Z,11.36
2022-11-07T08:21:00.522Z,11.36
2022-11-07T08:22:00.500Z,11.40
2022-11-07T08:23:00.457Z,11.33
2022-11-07T08:24:00.518Z,11.37
2022-11-07T08:25:00.427Z,11.35
2022-11-07T08:26:00.409Z,11.47
2022-11-07T08:27:00.405Z,11.40
2022-11-07T08:28:00.407Z,11.40
2022-11-07T08:29:00.364Z,11.46
2022-11-07T08:30:00.359Z,11.46
2022-11-07T08:31:00.349Z,11.49
2022-11-07T08:32:00.319Z,11.51
2022-11-07T08:33:00.334Z,11.49
2022-11-07T08:34:00.377Z,11.52
2022-11-07T08:35:00.272Z,11.43
2022-11-07T08:36:00.259Z,11.47
2022-11-07T08:37:00.240Z,11.57
2022-11-07T08:38:00.220Z,11.57
2022-11-07T08:39:00.240Z,11.58
2022-11-07T08:40:00.207Z,11.57
2022-11-07T08:41:00.176Z,11.54
2022-11-07T08:42:00.158Z,11.54
2022-11-07T08:43:00.153Z,11.62
2022-11-07T08:44:00.195Z,11.62
2022-11-07T08:45:00.122Z,11.69
2022-11-07T08:46:00.104Z,11.62
2022-11-07T08:47:04.369Z,11.65
2022-11-07T08:48:00.101Z,11.62
2022-11-07T08:49:00.069Z,11.60
2022-11-07T08:50:00.060Z,11.65
2022-11-07T08:51:00.098Z,11.62
2022-11-07T08:52:00.017Z,11.62
2022-11-07T08:53:02.927Z,11.69
2022-11-07T08:53:59.974Z,11.65
2022-11-07T08:54:59.977Z,11.67
2022-11-07T08:56:00.011Z,11.69
2022-11-07T08:56:59.927Z,11.69
2022-11-07T08:57:59.925Z,11.64
2022-11-07T08:58:59.896Z,11.69
2022-11-07T08:59:59.882Z,11.70
2022-11-07T09:00:59.923Z,11.73
2022-11-07T09:02:47.853Z,11.67
2022-11-07T09:04:00.046Z,11.69
2022-11-07T09:04:59.812Z,11.69
2022-11-07T09:05:59.800Z,11.70
2022-11-07T09:06:59.788Z,11.70
2022-11-07T09:07:59.760Z,11.78
2022-11-07T09:08:59.743Z,11.76
2022-11-07T09:09:59.775Z,11.67
2022-11-07T09:10:59.720Z,11.76
2022-11-07T09:11:59.991Z,11.73
2022-11-07T09:12:59.684Z,11.79
2022-11-07T09:13:59.664Z,11.83
2022-11-07T09:14:59.653Z,11.78
2022-11-07T09:15:59.642Z,11.88
2022-11-07T09:16:59.624Z,11.91
2022-11-07T09:17:59.645Z,11.96
2022-11-07T09:18:59.620Z,11.96
2022-11-07T09:19:59.590Z,11.98
2022-11-07T09:20:59.557Z,11.91
2022-11-07T09:21:59.549Z,12.07
2022-11-07T09:22:59.525Z,12.02
2022-11-07T09:23:59.544Z,12.09
2022-11-07T09:24:59.527Z,12.16
2022-11-07T09:25:59.502Z,12.05
2022-11-07T09:26:59.467Z,12.13
2022-11-07T09:27:59.449Z,12.09
2022-11-07T09:29:01.081Z,12.10
2022-11-07T09:29:59.416Z,12.07
2022-11-07T09:30:59.436Z,12.13
2022-11-07T09:32:08.282Z,12.12
2022-11-07T09:32:59.373Z,12.16
2022-11-07T09:33:59.380Z,12.14
2022-11-07T09:35:03.686Z,12.17
2022-11-07T09:35:59.326Z,12.19
2022-11-07T09:36:59.381Z,12.20
2022-11-07T09:37:59.303Z,12.20
2022-11-07T09:38:59.279Z,12.17
2022-11-07T09:39:59.271Z,12.19
2022-11-07T09:40:59.251Z,12.19
2022-11-07T09:41:59.241Z,12.17
2022-11-07T09:42:59.288Z,12.16
2022-11-07T09:43:59.218Z,12.29
2022-11-07T09:44:59.185Z,12.28
2022-11-07T09:45:59.198Z,12.29
2022-11-07T09:46:59.169Z,12.21
2022-11-07T09:47:59.149Z,12.20
2022-11-07T09:48:59.154Z,12.35
2022-11-07T09:49:59.136Z,12.37
2022-11-07T09:50:59.096Z,12.38
2022-11-07T09:51:59.079Z,12.32
2022-11-07T09:52:59.071Z,12.37
2022-11-07T09:53:59.072Z,12.29
2022-11-07T09:54:59.042Z,12.32
2022-11-07T09:55:59.024Z,12.37
2022-11-07T09:56:59.008Z,12.38
2022-11-07T09:57:58.991Z,12.41
2022-11-07T09:58:58.975Z,12.41
2022-11-07T09:59:58.989Z,12.45
2022-11-07T10:00:58.970Z,12.47
2022-11-07T10:01:59.004Z,12.47
2022-11-07T10:02:58.915Z,12.45
2022-11-07T10:04:23.520Z,12.52
2022-11-07T10:04:58.936Z,12.49
2022-11-07T10:05:58.875Z,12.53
2022-11-07T10:06:58.855Z,12.53
2022-11-07T10:07:58.840Z,12.56
2022-11-07T10:08:58.822Z,12.56
2022-11-07T10:09:58.806Z,12.52
2022-11-07T10:10:58.843Z,12.54
2022-11-07T10:11:58.777Z,12.54
2022-11-07T10:12:58.765Z,12.49
2022-11-07T10:13:58.764Z,12.50
2022-11-07T10:14:58.732Z,12.47
2022-11-07T10:15:58.720Z,12.52
2022-11-07T10:16:58.750Z,12.54
2022-11-07T10:17:58.691Z,12.56
2022-11-07T10:18:58.697Z,12.57
2022-11-07T10:19:58.659Z,12.70
2022-11-07T10:21:23.014Z,12.82
2022-11-07T10:21:58.640Z,12.92
2022-11-07T10:22:58.758Z,13.10
2022-11-07T10:23:58.597Z,13.30
2022-11-07T10:24:58.595Z,13.41
2022-11-07T10:25:58.568Z,13.38
2022-11-07T10:26:58.568Z,13.36
2022-11-07T10:27:58.539Z,13.39
2022-11-07T10:28:58.567Z,13.32
2022-11-07T10:29:58.508Z,13.42
2022-11-07T10:30:58.494Z,13.26
2022-11-07T10:31:58.520Z,13.41
2022-11-07T10:32:58.468Z,13.55
2022-11-07T10:33:58.449Z,13.44
2022-11-07T10:34:58.472Z,13.55
2022-11-07T10:35:58.420Z,13.33
2022-11-07T10:36:58.403Z,13.44
2022-11-07T10:37:58.392Z,13.44
2022-11-07T10:38:58.491Z,13.33
2022-11-07T10:39:58.362Z,13.33
2022-11-07T10:40:58.350Z,13.29
2022-11-07T10:41:58.333Z,13.30
2022-11-07T10:42:58.337Z,13.11
2022-11-07T10:43:58.316Z,13.32
2022-11-07T10:44:58.589Z,13.29
2022-11-07T10:45:58.275Z,13.38
2022-11-07T10:46:58.277Z,13.38
2022-11-07T10:47:58.268Z,13.52
2022-11-07T10:48:58.231Z,13.66
2022-11-07T10:49:58.214Z,13.69
2022-11-07T10:50:58.218Z,13.70
2022-11-07T10:51:58.184Z,13.70
2022-11-07T10:52:58.183Z,13.78
2022-11-07T10:53:58.164Z,13.69
2022-11-07T10:54:58.144Z,13.73
2022-11-07T10:55:58.133Z,13.71
2022-11-07T10:56:58.115Z,13.60
2022-11-07T10:57:58.119Z,13.73
2022-11-07T10:58:58.093Z,13.67
2022-11-07T10:59:58.071Z,13.69
2022-11-07T11:00:58.159Z,13.66
2022-11-07T11:01:58.075Z,13.55
2022-11-07T11:02:58.028Z,13.59
2022-11-07T11:03:58.017Z,13.62
2022-11-07T11:04:58.000Z,13.60
2022-11-07T11:05:58.047Z,13.71
2022-11-07T11:06:57.971Z,13.69
2022-11-07T11:07:57.964Z,13.73
2022-11-07T11:08:57.947Z,13.75
2022-11-07T11:09:57.932Z,13.71
2022-11-07T11:10:57.950Z,13.57
2022-11-07T11:11:57.905Z,13.67
2022-11-07T11:12:57.890Z,13.73
2022-11-07T11:13:57.876Z,13.64
2022-11-07T11:14:57.860Z,13.67
2022-11-07T11:16:01.316Z,13.69
2022-11-07T11:16:57.935Z,13.67
2022-11-07T11:17:57.818Z,13.78
2022-11-07T11:18:57.800Z,13.77
2022-11-07T11:19:57.908Z,13.75
2022-11-07T11:20:57.774Z,13.79
2022-11-07T11:21:57.766Z,13.78
2022-11-07T11:22:57.750Z,13.87
2022-11-07T11:23:57.737Z,13.82
2022-11-07T11:24:57.722Z,13.88
2022-11-07T11:25:57.784Z,13.89
2022-11-07T11:26:57.693Z,13.95
2022-11-07T11:27:57.679Z,13.96
2022-11-07T11:28:57.669Z,14.04
2022-11-07T11:29:57.662Z,14.07
2022-11-07T11:30:57.638Z,13.97
2022-11-07T11:31:57.677Z,14.06
2022-11-07T11:32:57.616Z,14.09
2022-11-07T11:33:57.611Z,14.18
2022-11-07T11:34:57.584Z,14.28
2022-11-07T11:35:57.567Z,14.24
2022-11-07T11:36:57.555Z,14.36
2022-11-07T11:37:57.561Z,14.24
2022-11-07T11:38:57.526Z,14.28
2022-11-07T11:39:57.511Z,14.21
2022-11-07T11:41:04.751Z,14.27
2022-11-07T11:41:57.488Z,14.27
2022-11-07T11:42:57.500Z,14.32
2022-11-07T11:43:57.460Z,14.18
2022-11-07T11:44:57.442Z,14.18
2022-11-07T11:45:57.429Z,14.09
2022-11-07T11:46:57.411Z,14.21
2022-11-07T11:47:57.458Z,14.17
2022-11-07T11:48:57.386Z,14.22
2022-11-07T11:49:57.405Z,14.06
2022-11-07T11:50:57.365Z,14.07
2022-11-07T11:51:57.361Z,14.09
2022-11-07T11:52:57.326Z,14.07
2022-11-07T11:53:57.326Z,14.06
2022-11-07T11:54:57.325Z,14.12
2022-11-07T11:55:57.318Z,14.14
2022-11-07T11:56:57.272Z,14.06
2022-11-07T11:57:57.259Z,14.09
2022-11-07T11:58:57.260Z,14.09
2022-11-07T11:59:57.259Z,14.06
2022-11-07T12:00:57.223Z,14.22
2022-11-07T12:01:57.314Z,14.17
2022-11-07T12:02:57.197Z,14.29
2022-11-07T12:03:57.174Z,14.25
2022-11-07T12:04:57.158Z,14.24
2022-11-07T12:05:57.144Z,14.25
2022-11-07T12:06:57.145Z,14.33
2022-11-07T12:07:57.146Z,14.15
2022-11-07T12:08:57.106Z,14.10
2022-11-07T12:09:57.113Z,14.17
2022-11-07T12:10:57.119Z,14.21
2022-11-07T12:11:57.084Z,14.12
2022-11-07T12:12:57.045Z,14.15
2022-11-07T12:13:57.045Z,14.10
2022-11-07T12:14:58.094Z,14.04
2022-11-07T12:15:57.044Z,14.03
2022-11-07T12:16:56.994Z,13.99
2022-11-07T12:17:56.982Z,13.95
2022-11-07T12:18:56.966Z,13.87
2022-11-07T12:19:56.946Z,13.85
2022-11-07T12:20:57.575Z,13.89
2022-11-07T12:21:56.946Z,13.82
2022-11-07T12:22:56.928Z,13.84
2022-11-07T12:23:56.934Z,13.87
2022-11-07T12:24:56.879Z,14.03
2022-11-07T12:25:56.877Z,14.04
2022-11-07T12:26:58.107Z,13.99
2022-11-07T12:27:56.851Z,14.12
2022-11-07T12:28:56.818Z,14.06
2022-11-07T12:29:56.826Z,14.09
2022-11-07T12:30:56.797Z,14.03
2022-11-07T12:31:56.814Z,14.09
2022-11-07T12:32:56.762Z,13.91
2022-11-07T12:33:56.753Z,13.89
2022-11-07T12:34:56.738Z,13.84
2022-11-07T12:35:56.723Z,13.84
2022-11-07T12:36:56.733Z,13.75
2022-11-07T12:37:56.696Z,13.70
2022-11-07T12:38:56.681Z,13.62
2022-11-07T12:39:56.728Z,13.52
2022-11-07T12:40:56.649Z,13.48
2022-11-07T12:41:56.657Z,13.36
2022-11-07T12:42:59.974Z,13.32
2022-11-07T12:43:56.609Z,13.33
2022-11-07T12:44:56.593Z,13.15
2022-11-07T12:45:56.588Z,13.14
2022-11-07T12:46:56.579Z,13.05
2022-11-07T12:47:56.551Z,13.00
2022-11-07T12:48:56.574Z,13.00
2022-11-07T12:49:56.531Z,12.93
2022-11-07T12:50:56.514Z,12.95
2022-11-07T12:51:56.546Z,13.04
2022-11-07T12:52:56.480Z,13.01